Terminal Aerodrome Forecast
Issued by NWS

Home | Current Version | Previous Version | Text Only | Print | Product List | Glossary On
Versions: 1 2 3 4 5 6 7 8 9 10 11 12 13 14 15 16
000
FTUS44 KCRP 211700
TAFALI
TAF
KALI 211731Z 2118/2218 17019G27KT P6SM FEW050
     FM212000 14021G29KT P6SM SKC
     FM220100 15014G22KT P6SM SKC
     FM220400 15010KT P6SM SCT015
      TEMPO 2209/2213 BKN015
     FM221400 17014G20KT P6SM SCT035=

USA.gov is the U.S. government's official web portal to all federal, state and local government web resources and services.